Time;durP1;ratioP1;P1;durP2;ratioP2;P2;SDS_P1;SDS_P2;PMS_P1;PMS_P2;Temp;Humidity;BMP_temperature;BMP_pressure;BME280_temperature;BME280_humidity;BME280_pressure;Samples;Min_cycle;Max_cycle;Signal;HPM_P1;HPM_P2
2022/09/13 00:00:34;;;;;;;16.00;12.02;;;;;;;16.43;99.94;68594.84;5033161;28;20053;-82
2022/09/13 00:02:59;;;;;;;13.63;11.25;;;;;;;16.42;100.00;68593.69;5032043;28;20033;-82
2022/09/13 00:05:25;;;;;;;12.50;11.15;;;;;;;16.45;99.85;68591.16;5027399;28;20079;-82
2022/09/13 00:07:51;;;;;;;14.98;11.02;;;;;;;16.45;99.91;68594.44;5032302;28;20069;-82
2022/09/13 00:10:16;;;;;;;13.68;10.10;;;;;;;16.45;99.38;68597.09;5030440;28;20049;-82
2022/09/13 00:12:42;;;;;;;14.15;10.80;;;;;;;16.45;100.00;68597.09;5034084;28;20049;-82
2022/09/13 00:15:08;;;;;;;16.08;11.73;;;;;;;16.51;99.64;68597.44;5032057;28;20501;-82
2022/09/13 00:17:33;;;;;;;13.60;11.15;;;;;;;16.54;99.34;68606.22;5034799;28;20546;-82
2022/09/13 00:19:59;;;;;;;14.30;11.27;;;;;;;16.54;99.83;68606.81;5029455;28;20064;-81
2022/09/13 00:22:25;;;;;;;14.43;11.55;;;;;;;16.54;100.00;68606.22;5031990;28;20048;-81
2022/09/13 00:24:51;;;;;;;15.70;12.23;;;;;;;16.55;100.00;68607.94;5033255;28;20133;-81
2022/09/13 00:27:16;;;;;;;13.48;11.73;;;;;;;16.54;100.00;68606.22;5029822;28;20120;-81
2022/09/13 00:29:42;;;;;;;13.18;11.15;;;;;;;16.48;100.00;68597.28;5033444;28;20064;-81
2022/09/13 00:32:07;;;;;;;13.75;11.38;;;;;;;16.50;100.00;68599.00;5031399;28;20049;-82
2022/09/13 00:34:33;;;;;;;13.30;11.38;;;;;;;;;;5034272;28;20396;-82
2022/09/13 00:36:58;;;;;;;12.60;10.90;;;;;;;16.48;100.00;68599.97;5032709;28;20515;-82
2022/09/13 00:39:23;;;;;;;13.80;11.00;;;;;;;;;;5034009;28;20128;-83
2022/09/13 00:41:48;;;;;;;16.00;11.30;;;;;;;16.46;100.00;68598.25;5033128;28;20037;-82
2022/09/13 00:44:51;;;;;;;14.95;12.00;;;;;;;16.43;100.00;68594.84;5034147;28;20057;-82
2022/09/13 00:47:22;;;;;;;13.30;10.98;;;;;;;16.40;100.00;68588.75;4993385;28;20510;-82
2022/09/13 00:49:52;;;;;;;12.75;10.50;;;;;;;16.41;100.00;68597.94;5012868;28;20061;-83
2022/09/13 00:52:22;;;;;;;16.70;11.65;;;;;;;16.44;100.00;68595.41;5021030;28;20041;-82
2022/09/13 00:54:54;;;;;;;14.10;11.32;;;;;;;16.43;100.00;68591.59;5032129;28;20038;-83
2022/09/13 00:57:21;;;;;;;13.85;11.98;;;;;;;16.44;100.00;68600.78;5028163;28;20091;-82
2022/09/13 00:59:56;;;;;;;13.15;11.57;;;;;;;16.42;100.00;68599.06;5033027;28;20321;-82
2022/09/13 01:02:22;;;;;;;13.70;11.45;;;;;;;16.41;100.00;68592.00;5024622;28;20057;-82
2022/09/13 01:04:47;;;;;;;14.18;11.20;;;;;;;16.42;100.00;68593.13;5022772;28;20562;-82
2022/09/13 01:07:15;;;;;;;14.50;11.50;;;;;;;16.41;100.00;68589.88;5029687;28;20041;-83
2022/09/13 01:09:45;;;;;;;13.60;11.45;;;;;;;16.44;100.00;68595.97;5028604;28;20041;-82
2022/09/13 01:12:49;;;;;;;14.18;10.82;;;;;;;16.47;100.00;68598.84;5028544;28;20732;-83
2022/09/13 01:15:15;;;;;;;14.85;12.88;;;;;;;;;;5032349;28;20156;-82
2022/09/13 01:17:42;;;;;;;14.35;12.15;;;;;;;16.46;100.00;68592.88;5033949;28;20076;-82
2022/09/13 01:20:09;;;;;;;14.82;12.82;;;;;;;16.45;100.00;68596.53;5032864;28;20507;-82
2022/09/13 01:23:03;;;;;;;16.23;13.45;;;;;;;16.44;100.00;68590.59;5027173;28;20037;-82
2022/09/13 01:25:49;;;;;;;16.00;13.75;;;;;;;16.44;100.00;68593.28;5029603;28;20472;-82
2022/09/13 01:28:46;;;;;;;15.95;12.90;;;;;;;16.41;100.00;68589.88;5029726;28;20411;-82
2022/09/13 01:31:11;;;;;;;16.40;13.05;;;;;;;;;;5030977;28;20866;-81
2022/09/13 01:33:53;;;;;;;18.93;16.27;;;;;;;16.38;100.00;68589.13;5030592;28;20061;-82
2022/09/13 01:36:31;;;;;;;21.40;16.75;;;;;;;16.39;100.00;68590.28;5030113;28;20057;-82
2022/09/13 01:39:06;;;;;;;18.37;14.77;;;;;;;16.47;100.00;68596.72;5033543;28;20034;-82
2022/09/13 01:41:50;;;;;;;20.88;14.95;;;;;;;16.51;100.00;68602.81;5028322;28;20287;-83
2022/09/13 01:44:18;;;;;;;17.15;14.90;;;;;;;16.56;100.00;68605.84;5022321;28;20048;-82
2022/09/13 01:46:54;;;;;;;21.43;15.67;;;;;;;16.59;100.00;68617.88;5034280;28;20048;-82
2022/09/13 01:49:24;;;;;;;17.63;15.73;;;;;;;16.60;100.00;68618.44;5033617;28;20045;-83
2022/09/13 01:51:55;;;;;;;19.88;15.80;;;;;;;16.62;100.00;68612.66;5029650;28;20045;-83
2022/09/13 01:54:32;;;;;;;17.88;15.02;;;;;;;16.64;100.00;68614.97;5027985;28;20041;-83
2022/09/13 01:57:16;;;;;;;20.35;16.38;;;;;;;16.60;100.00;68613.06;5033910;28;20038;-83
2022/09/13 01:59:56;;;;;;;21.80;16.40;;;;;;;16.52;100.00;68601.84;5030733;28;20048;-83
2022/09/13 02:02:44;;;;;;;20.67;17.27;;;;;;;16.57;100.00;68609.66;5023165;28;20100;-82
2022/09/13 02:05:17;;;;;;;22.35;18.52;;;;;;;;;;5023499;28;20045;-82
2022/09/13 02:07:44;;;;;;;20.35;17.15;;;;;;;;;;5033332;28;20044;-82
2022/09/13 02:10:36;;;;;;;21.40;17.20;;;;;;;16.67;100.00;68621.06;5033269;28;20115;-83
2022/09/13 02:13:05;;;;;;;20.70;17.60;;;;;;;16.67;100.00;68615.69;5030854;28;20056;-83
2022/09/13 02:15:31;;;;;;;;;;;;;;;;;;5030495;28;20053;-83
2022/09/13 02:18:04;;;;;;;22.63;17.02;;;;;;;;;;5027237;28;19924;-82
2022/09/13 02:20:34;;;;;;;20.55;16.55;;;;;;;16.53;100.00;68605.66;5026020;28;20045;-82
2022/09/13 02:23:08;;;;;;;20.92;16.88;;;;;;;16.59;100.00;68612.50;5027768;28;20046;-81
2022/09/13 02:25:37;;;;;;;22.48;17.50;;;;;;;16.62;100.00;68620.72;5032274;28;20045;-81
2022/09/13 02:28:10;;;;;;;21.20;18.40;;;;;;;16.62;100.00;68615.34;5024350;28;20077;-83
2022/09/13 02:30:40;;;;;;;22.27;17.88;;;;;;;16.59;100.00;68612.50;5035899;28;20117;-82
2022/09/13 02:33:20;;;;;;;22.33;18.05;;;;;;;16.58;99.39;68611.38;5030081;28;20041;-82
2022/09/13 02:35:52;;;;;;;21.38;17.65;;;;;;;16.68;98.33;68620.06;5033217;28;20068;-83
2022/09/13 02:38:24;;;;;;;22.27;17.92;;;;;;;16.71;99.64;68622.94;5034689;28;20045;-82
2022/09/13 02:40:58;;;;;;;21.23;17.17;;;;;;;;;;5033354;28;20038;-82
2022/09/13 02:43:34;;;;;;;22.10;18.52;;;;;;;16.61;100.00;68619.59;5026680;28;20049;-83
2022/09/13 02:46:13;;;;;;;21.45;18.15;;;;;;;16.54;100.00;68604.13;5021688;28;20093;-83
2022/09/13 02:49:02;;;;;;;23.60;19.42;;;;;;;16.42;100.00;68588.31;5022587;28;20034;-83
2022/09/13 02:51:27;;;;;;;23.95;19.15;;;;;;;;;;5029893;28;20103;-83
2022/09/13 02:54:05;;;;;;;22.38;18.60;;;;;;;16.33;100.00;68580.19;5031068;28;20104;-83
2022/09/13 02:56:56;;;;;;;21.17;18.80;;;;;;;16.30;100.00;68580.00;5033744;28;20400;-83
2022/09/13 02:59:23;;;;;;;23.48;20.77;;;;;;;16.20;100.00;68563.81;5019948;28;20033;-83
2022/09/13 03:01:53;;;;;;;25.55;19.58;;;;;;;;;;5031856;28;20045;-83
2022/09/13 03:04:19;;;;;;;26.30;20.30;;;;;;;;;;5031323;28;20046;-83
2022/09/13 03:06:44;;;;;;;23.60;18.70;;;;;;;16.39;100.00;68589.72;5030604;28;20530;-83
2022/09/13 03:09:10;;;;;;;26.85;20.30;;;;;;;16.37;100.00;68587.41;5030574;28;20054;-83
2022/09/13 03:11:50;;;;;;;23.13;19.77;;;;;;;16.33;100.00;68582.88;5029871;28;20085;-83
2022/09/13 03:14:23;;;;;;;26.00;19.23;;;;;;;;;;5026504;28;20048;-82
2022/09/13 03:16:51;;;;;;;22.98;19.17;;;;;;;;;;5036678;28;20120;-82
2022/09/13 03:19:42;;;;;;;22.75;20.27;;;;;;;16.29;100.00;68578.88;5035033;28;20124;-82
2022/09/13 03:22:14;;;;;;;23.73;20.25;;;;;;;16.22;100.00;68571.47;5017375;28;20386;-82
2022/09/13 03:25:06;;;;;;;25.90;19.52;;;;;;;16.34;100.00;68584.59;5017466;28;20096;-82
2022/09/13 03:27:50;;;;;;;23.60;19.13;;;;;;;16.41;100.00;68589.31;5015848;28;20537;-82
2022/09/13 03:30:17;;;;;;;25.13;20.05;;;;;;;16.36;100.00;68586.28;5020799;28;20045;-82
2022/09/13 03:32:51;;;;;;;22.33;19.92;;;;;;;16.35;100.00;68585.72;5036785;28;20046;-82
2022/09/13 03:35:29;;;;;;;23.65;19.98;;;;;;;16.37;100.00;68588.00;5035151;28;20291;-82
2022/09/13 03:38:15;;;;;;;25.65;21.85;;;;;;;16.27;100.00;68576.59;5036987;28;20049;-81
2022/09/13 03:40:58;;;;;;;25.50;20.85;;;;;;;16.23;100.00;68572.03;5032853;28;20413;-82
2022/09/13 03:43:35;;;;;;;26.95;20.98;;;;;;;16.23;100.00;68566.69;5036788;28;20503;-83
2022/09/13 03:46:09;;;;;;;23.83;20.25;;;;;;;16.19;100.00;68568.03;5032947;28;20187;-83
2022/09/13 03:48:36;;;;;;;24.17;20.70;;;;;;;;;;5034202;28;20467;-82
2022/09/13 03:51:06;;;;;;;24.30;20.27;;;;;;;16.27;100.00;68576.03;5034948;28;20497;-82
2022/09/13 03:53:36;;;;;;;28.52;21.02;;;;;;;16.20;100.00;68568.63;5033880;28;20125;-83
2022/09/13 03:56:14;;;;;;;25.42;20.98;;;;;;;16.22;100.00;68576.25;5034328;28;20034;-82
2022/09/13 03:58:39;;;;;;;27.08;20.95;;;;;;;16.28;100.00;68577.72;5034580;28;20029;-82
2022/09/13 04:01:05;;;;;;;25.73;20.25;;;;;;;;;;5038306;28;20045;-82
2022/09/13 04:03:30;;;;;;;25.85;21.80;;;;;;;16.29;100.00;68578.88;5034383;28;20508;-82
2022/09/13 04:05:56;;;;;;;25.15;19.92;;;;;;;16.25;100.00;68574.31;5026775;28;20123;-82
2022/09/13 04:08:21;;;;;;;26.42;21.25;;;;;;;;;;5029579;28;20038;-82
2022/09/13 04:10:49;;;;;;;24.85;20.27;;;;;;;16.26;100.00;68575.47;5036113;28;20357;-82
2022/09/13 04:13:16;;;;;;;29.30;21.85;;;;;;;16.27;100.00;68576.59;5035417;28;20041;-83
2022/09/13 04:15:41;;;;;;;26.33;21.45;;;;;;;16.21;100.00;68570.31;5035731;28;20038;-83
2022/09/13 04:18:07;;;;;;;28.77;21.48;;;;;;;;;;5022512;28;20046;-81
2022/09/13 04:20:34;;;;;;;28.40;21.13;;;;;;;16.29;100.00;68578.31;5025359;28;20536;-82
2022/09/13 04:23:00;;;;;;;25.90;21.55;;;;;;;;;;5025683;28;20229;-81
2022/09/13 04:25:25;;;;;;;24.60;20.42;;;;;;;16.35;100.00;68582.47;5032737;28;20077;-80
2022/09/13 04:27:54;;;;;;;26.23;21.20;;;;;;;16.42;100.00;68593.13;5027124;28;20045;-81
2022/09/13 04:30:20;;;;;;;26.15;22.27;;;;;;;16.44;100.00;68593.28;5033880;28;20048;-81
2022/09/13 04:32:46;;;;;;;26.88;20.98;;;;;;;16.49;100.00;68598.44;5034219;28;20045;-82
2022/09/13 04:35:11;;;;;;;26.60;22.45;;;;;;;;;;5036269;28;20040;-82
2022/09/13 04:37:37;;;;;;;27.50;23.17;;;;;;;16.48;100.00;68599.97;5036011;28;20048;-82
2022/09/13 04:40:05;;;;;;;26.60;21.42;;;;;;;16.45;100.00;68597.09;5037691;28;20041;-83
2022/09/13 04:42:30;;;;;;;28.73;21.15;;;;;;;16.44;100.00;68595.97;5036202;28;20037;-83
2022/09/13 04:44:56;;;;;;;26.55;21.90;;;;;;;16.39;100.00;68590.28;5029527;28;20122;-82
2022/09/13 04:47:22;;;;;;;29.25;23.08;;;;;;;16.40;100.00;68591.44;5031882;28;20049;-83
2022/09/13 04:49:47;;;;;;;32.70;25.20;;;;;;;16.40;100.00;68590.84;5032466;28;20477;-83
2022/09/13 04:52:13;;;;;;;32.83;24.65;;;;;;;16.40;100.00;68596.81;5032454;28;20049;-83
2022/09/13 04:54:38;;;;;;;33.05;25.42;;;;;;;16.40;100.00;68591.44;5032341;28;20132;-82
2022/09/13 04:57:04;;;;;;;31.98;25.83;;;;;;;16.46;100.00;68597.69;5028486;28;20092;-83
2022/09/13 04:59:29;;;;;;;32.65;25.02;;;;;;;16.50;100.00;68601.69;5032358;28;20041;-83
2022/09/13 05:01:54;;;;;;;31.48;25.52;;;;;;;16.56;100.00;68608.53;5030696;28;20080;-82
2022/09/13 05:04:20;;;;;;;31.63;23.40;;;;;;;16.54;100.00;68604.13;5031880;28;20041;-83
2022/09/13 05:06:47;;;;;;;31.83;24.33;;;;;;;16.53;100.00;68605.66;5031022;28;20034;-83
2022/09/13 05:09:13;;;;;;;30.95;24.58;;;;;;;16.59;100.00;68611.94;5033116;28;20037;-84
2022/09/13 05:11:39;;;;;;;32.25;26.92;;;;;;;16.64;100.00;68614.97;5033582;28;20037;-83
2022/09/13 05:14:05;;;;;;;31.42;24.25;;;;;;;16.63;100.00;68622.44;5029505;28;20385;-83
2022/09/13 05:16:32;;;;;;;32.65;23.65;;;;;;;16.68;100.00;68627.56;5034607;28;20046;-84
2022/09/13 05:18:58;;;;;;;31.10;24.00;;;;;;;16.73;100.00;68632.72;5032397;28;20116;-83
2022/09/13 05:21:23;;;;;;;30.48;25.13;;;;;;;;;;5034343;28;20114;-82
2022/09/13 05:23:50;;;;;;;34.38;25.85;;;;;;;16.76;100.00;68636.72;5037282;28;20076;-83
2022/09/13 05:26:15;;;;;;;34.83;26.40;;;;;;;16.77;100.00;68631.91;5036955;28;20038;-83
2022/09/13 05:28:41;;;;;;;32.22;25.02;;;;;;;16.78;100.00;68633.63;5040102;28;20401;-83
2022/09/13 05:31:19;;;;;;;30.88;25.50;;;;;;;16.77;100.00;68631.91;5039665;28;20029;-83
2022/09/13 05:33:47;;;;;;;33.70;26.60;;;;;;;16.78;100.00;68633.06;5039026;28;20109;-83
2022/09/13 05:36:12;;;;;;;31.90;25.38;;;;;;;;;;5039069;28;20073;-83
2022/09/13 05:38:37;;;;;;;34.93;25.80;;;;;;;16.78;100.00;68633.63;5035590;28;20053;-82
2022/09/13 05:41:04;;;;;;;34.42;26.00;;;;;;;;;;5039867;28;20375;-82
2022/09/13 05:43:32;;;;;;;33.35;24.92;;;;;;;16.78;100.00;68633.63;5035232;28;20125;-82
2022/09/13 05:46:00;;;;;;;33.42;24.67;;;;;;;16.81;100.00;68642.44;5072137;22;20056;-79
2022/09/13 05:48:26;;;;;;;32.67;25.60;;;;;;;16.83;100.00;68636.06;5050636;28;20573;-79
2022/09/13 05:50:51;;;;;;;31.73;24.63;;;;;;;16.82;100.00;68643.00;5051515;28;20272;-78
2022/09/13 05:53:16;;;;;;;33.45;24.63;;;;;;;16.86;100.00;68648.13;5050455;28;20045;-81
2022/09/13 05:55:41;;;;;;;32.20;25.52;;;;;;;16.86;100.00;68642.75;5034388;28;20041;-80
2022/09/13 05:58:07;;;;;;;33.10;26.20;;;;;;;16.86;100.00;68642.75;5029034;28;20045;-79
2022/09/13 06:00:33;;;;;;;32.85;24.75;;;;;;;16.88;100.00;68645.03;5029592;28;20033;-79
2022/09/13 06:02:58;;;;;;;31.45;26.08;;;;;;;16.95;100.00;68652.44;5035921;28;20041;-79
2022/09/13 06:05:24;;;;;;;33.92;26.75;;;;;;;;;;5030744;28;20061;-77
2022/09/13 06:07:49;;;;;;;34.45;27.13;;;;;;;;;;5029288;28;20049;-78
2022/09/13 06:10:14;;;;;;;31.63;26.00;;;;;;;16.98;100.00;68660.69;5028914;28;20128;-79
2022/09/13 06:12:40;;;;;;;34.67;24.92;;;;;;;17.03;100.00;68661.00;5030063;28;20288;-77
2022/09/13 06:15:05;;;;;;;32.53;26.45;;;;;;;;;;5030563;28;20424;-80
2022/09/13 06:17:31;;;;;;;33.10;24.98;;;;;;;17.09;100.00;68667.84;5030669;28;20041;-79
2022/09/13 06:19:56;;;;;;;36.10;27.60;;;;;;;17.12;100.00;68671.84;5029157;28;20041;-79
2022/09/13 06:22:22;;;;;;;34.75;26.58;;;;;;;17.12;100.00;68671.84;5029832;28;20400;-79
2022/09/13 06:24:47;;;;;;;33.88;27.33;;;;;;;17.13;100.00;68670.28;5029506;28;20482;-79
2022/09/13 06:27:12;;;;;;;35.83;27.42;;;;;;;17.17;100.00;68681.78;5028772;28;20037;-78
2022/09/13 06:29:38;;;;;;;34.80;26.17;;;;;;;17.25;100.00;68686.09;5029651;28;20049;-78
2022/09/13 06:32:03;;;;;;;34.63;28.02;;;;;;;17.30;100.00;68691.22;5028493;28;20059;-78
2022/09/13 06:34:29;;;;;;;35.30;26.85;;;;;;;17.29;100.00;68695.47;5024897;28;20480;-78
2022/09/13 06:36:54;;;;;;;36.50;27.00;;;;;;;17.33;99.63;68700.03;5029633;28;20038;-79
2022/09/13 06:39:20;;;;;;;32.55;25.05;;;;;;;17.38;99.70;68700.38;5026013;28;20092;-79
2022/09/13 06:41:45;;;;;;;35.13;25.70;;;;;;;;;;5029868;28;20163;-80
2022/09/13 06:44:11;;;;;;;34.75;26.02;;;;;;;17.43;99.14;68697.97;5027364;28;20336;-77
2022/09/13 06:46:37;;;;;;;34.55;25.33;;;;;;;17.48;99.04;68711.19;5030275;28;20041;-80
2022/09/13 06:49:04;;;;;;;34.72;26.45;;;;;;;17.52;98.52;68713.66;5030155;28;20038;-80
2022/09/13 06:51:31;;;;;;;35.67;26.15;;;;;;;17.54;98.93;68718.03;5034137;28;20046;-78
2022/09/13 06:53:57;;;;;;;32.92;25.60;;;;;;;17.53;98.43;68717.47;5030334;28;20033;-79
2022/09/13 06:56:34;;;;;;;34.50;25.25;;;;;;;17.59;98.84;68723.75;5032247;28;20049;-79
2022/09/13 06:59:06;;;;;;;35.00;27.17;;;;;;;17.59;98.81;68723.75;5026737;28;20129;-80
2022/09/13 07:01:34;;;;;;;36.10;25.98;;;;;;;17.58;98.58;68722.63;5032173;28;20097;-78
2022/09/13 07:04:04;;;;;;;36.28;27.77;;;;;;;17.64;98.17;68729.47;5031789;28;20041;-79
2022/09/13 07:06:30;;;;;;;32.28;27.92;;;;;;;;;;5033206;28;20033;-78
2022/09/13 07:08:57;;;;;;;35.17;26.95;;;;;;;17.70;97.60;68736.31;5033648;28;20037;-78
2022/09/13 07:11:25;;;;;;;34.00;26.40;;;;;;;17.73;97.93;68739.16;5035044;28;20095;-78
2022/09/13 07:13:53;;;;;;;32.17;26.60;;;;;;;17.77;96.86;68741.03;5031821;28;20041;-78
2022/09/13 07:16:20;;;;;;;33.72;27.67;;;;;;;17.80;97.15;68747.72;5032500;28;20520;-79
2022/09/13 07:18:58;;;;;;;36.55;24.67;;;;;;;17.78;97.37;68744.88;5033280;28;20036;-80
2022/09/13 07:21:24;;;;;;;32.35;24.73;;;;;;;17.80;97.41;68747.16;5031990;28;20046;-79
2022/09/13 07:23:51;;;;;;;33.08;26.02;;;;;;;17.87;97.14;68755.16;5033146;28;20128;-79
2022/09/13 07:26:16;;;;;;;37.17;26.33;;;;;;;;;;5014698;28;20058;-79
2022/09/13 07:28:46;;;;;;;32.47;26.23;;;;;;;;;;5031405;28;20041;-78
2022/09/13 07:31:19;;;;;;;31.08;23.70;;;;;;;18.00;95.80;68769.41;5032734;28;20053;-79
2022/09/13 07:33:44;;;;;;;32.88;24.95;;;;;;;;;;5032390;28;20052;-78
2022/09/13 07:36:11;;;;;;;38.15;26.88;;;;;;;17.97;96.24;68760.59;5033749;28;20053;-78
2022/09/13 07:38:38;;;;;;;32.78;27.17;;;;;;;18.04;95.94;68774.56;5033345;28;20068;-78
2022/09/13 07:41:05;;;;;;;33.90;26.27;;;;;;;18.02;96.10;68771.69;5034570;28;20076;-80
2022/09/13 07:43:34;;;;;;;35.03;23.80;;;;;;;;;;5030626;28;20496;-78
2022/09/13 07:46:04;;;;;;;32.72;28.85;;;;;;;;;;5032772;28;20530;-80
2022/09/13 07:48:31;;;;;;;31.77;27.55;;;;;;;18.13;95.17;68783.69;5032050;28;20038;-80
2022/09/13 07:51:02;;;;;;;34.28;26.38;;;;;;;;;;5033445;28;20403;-79
2022/09/13 07:53:28;;;;;;;33.03;27.42;;;;;;;18.09;96.37;68787.19;5034150;28;20045;-80
2022/09/13 07:55:59;;;;;;;35.05;26.77;;;;;;;18.17;95.27;68788.81;5028368;28;20101;-79
2022/09/13 07:58:25;;;;;;;38.20;26.30;;;;;;;18.23;94.67;68795.66;5034385;28;20530;-78
2022/09/13 08:00:50;;;;;;;36.28;27.23;;;;;;;18.26;95.04;68799.09;5034428;28;20045;-80
2022/09/13 08:03:16;;;;;;;33.55;26.88;;;;;;;18.20;95.49;68789.53;5034787;28;20095;-79
2022/09/13 08:05:41;;;;;;;32.95;25.33;;;;;;;;;;5033650;28;20045;-79
2022/09/13 08:08:06;;;;;;;34.25;28.30;;;;;;;18.35;95.34;68805.53;5034949;28;20037;-80
2022/09/13 08:10:33;;;;;;;34.78;27.67;;;;;;;18.38;95.23;68809.53;5033882;28;20377;-78
2022/09/13 08:12:58;;;;;;;33.00;29.20;;;;;;;18.42;95.23;68816.22;5034182;28;20049;-79
2022/09/13 08:15:24;;;;;;;36.90;29.20;;;;;;;;;;5033484;28;20049;-80
2022/09/13 08:17:49;;;;;;;35.27;27.13;;;;;;;18.51;95.07;68823.81;5035783;28;20049;-80
2022/09/13 08:20:15;;;;;;;34.20;26.35;;;;;;;18.55;94.92;68825.09;5034180;28;20284;-79
2022/09/13 08:22:40;;;;;;;34.65;25.33;;;;;;;18.55;94.91;68831.06;5036412;28;20052;-80
2022/09/13 08:25:06;;;;;;;34.30;26.58;;;;;;;18.69;95.32;68847.03;5030462;28;20041;-80
2022/09/13 08:27:31;;;;;;;34.30;27.40;;;;;;;18.75;95.03;68850.09;5033004;28;20068;-80
2022/09/13 08:29:56;;;;;;;33.90;26.60;;;;;;;18.80;94.78;68858.50;5035436;28;20069;-77
2022/09/13 08:32:22;;;;;;;32.05;25.05;;;;;;;18.87;94.16;68871.88;5036015;28;20041;-80
2022/09/13 08:34:47;;;;;;;30.83;23.30;;;;;;;18.84;94.53;68863.06;5035775;28;20093;-79
2022/09/13 08:37:12;;;;;;;31.95;26.15;;;;;;;18.89;94.69;68868.78;5033951;28;20043;-78
2022/09/13 08:39:38;;;;;;;26.55;23.65;;;;;;;18.92;94.79;68870.06;5035901;28;20057;-80
2022/09/13 08:42:35;;;;;;;28.38;22.73;;;;;;;18.97;94.96;68877.91;5035248;28;20045;-80
2022/09/13 08:45:00;;;;;;;28.42;23.85;;;;;;;18.97;95.34;68874.66;5023153;28;20041;-79
2022/09/13 08:47:26;;;;;;;28.77;22.50;;;;;;;18.97;96.57;68877.91;5035488;28;20582;-80
2022/09/13 08:50:03;;;;;;;30.02;22.27;;;;;;;19.05;96.36;68881.66;5036138;28;20536;-80
2022/09/13 08:52:32;;;;;;;28.08;21.83;;;;;;;19.07;96.05;68888.75;5049192;28;20053;-80
2022/09/13 08:55:33;;;;;;;29.58;23.30;;;;;;;19.05;97.07;68884.34;5033017;28;20041;-80
2022/09/13 08:58:16;;;;;;;29.45;21.65;;;;;;;19.04;97.61;68885.91;5032804;28;20129;-79
2022/09/13 09:00:48;;;;;;;30.05;24.42;;;;;;;19.17;97.47;68898.06;5033195;28;20071;-79
2022/09/13 09:03:41;;;;;;;30.63;24.52;;;;;;;19.20;98.20;68903.03;5032998;28;20057;-79
2022/09/13 09:06:11;;;;;;;26.50;23.33;;;;;;;;;;5031792;28;20053;-79
2022/09/13 09:08:46;;;;;;;30.38;25.90;;;;;;;19.28;99.46;68912.75;5033031;28;20483;-80
2022/09/13 09:11:30;;;;;;;31.98;25.42;;;;;;;19.43;99.28;68928.75;5028842;28;20088;-80
2022/09/13 09:14:02;;;;;;;30.50;23.80;;;;;;;;;;5034076;28;20475;-79
2022/09/13 09:16:38;;;;;;;28.02;22.42;;;;;;;19.51;98.96;68935.78;5032426;28;20408;-78
2022/09/13 09:19:21;;;;;;;28.50;23.08;;;;;;;19.57;98.35;68939.91;5032929;28;20045;-80
2022/09/13 09:21:49;;;;;;;28.73;23.13;;;;;;;19.57;98.83;68945.31;5029578;28;20105;-79
2022/09/13 09:24:20;;;;;;;27.80;22.00;;;;;;;19.75;98.87;68964.78;5033254;28;20108;-79
2022/09/13 09:26:45;;;;;;;27.60;24.25;;;;;;;19.84;97.75;68972.91;5033174;28;20044;-79
2022/09/13 09:29:24;;;;;;;28.17;23.27;;;;;;;19.83;97.55;68971.22;5034431;28;20440;-79
2022/09/13 09:31:59;;;;;;;27.23;22.95;;;;;;;19.85;98.26;68976.19;5033893;28;20270;-80
2022/09/13 09:34:43;;;;;;;25.35;22.60;;;;;;;19.85;97.79;68973.50;5034505;28;20428;-79
2022/09/13 09:37:25;;;;;;;30.98;24.13;;;;;;;19.75;99.96;68959.38;5032802;28;20056;-79
2022/09/13 09:40:00;;;;;;;29.08;23.90;;;;;;;19.75;99.04;68970.19;5030971;28;20171;-80
2022/09/13 09:42:28;;;;;;;28.05;22.20;;;;;;;19.75;98.73;68962.06;5032756;28;20048;-80
2022/09/13 09:45:03;;;;;;;28.55;22.27;;;;;;;19.77;98.68;68967.63;5034227;28;20443;-80
2022/09/13 09:47:40;;;;;;;25.15;21.45;;;;;;;19.75;98.60;68965.34;5033022;28;20042;-78
2022/09/13 09:50:18;;;;;;;28.55;23.23;;;;;;;19.68;99.64;68951.94;5033458;28;20034;-80
2022/09/13 09:53:05;;;;;;;26.80;21.70;;;;;;;19.75;99.10;68964.78;5031862;28;20049;-80
2022/09/13 09:55:45;;;;;;;26.95;20.52;;;;;;;19.88;99.34;68979.03;5031825;28;20056;-79
2022/09/13 09:58:15;;;;;;;21.65;18.45;;;;;;;19.94;97.76;68986.50;5032532;28;20052;-80
2022/09/13 10:00:56;;;;;;;22.38;17.20;;;;;;;19.94;98.43;68986.50;5033628;28;20377;-80
2022/09/13 10:03:28;;;;;;;22.02;17.60;;;;;;;19.97;98.39;68983.94;5029862;28;20057;-80
2022/09/13 10:06:11;;;;;;;20.40;16.52;;;;;;;20.00;98.28;68993.34;5034602;28;20036;-80
2022/09/13 10:08:40;;;;;;;19.25;15.05;;;;;;;20.05;97.42;68998.47;5045902;28;20051;-79
2022/09/13 10:11:06;;;;;;;19.20;13.90;;;;;;;20.18;97.59;69007.38;5031325;28;20084;-80
2022/09/13 10:13:31;;;;;;;17.08;13.80;;;;;;;20.33;96.26;69029.94;5030868;28;20046;-80
2022/09/13 10:16:03;;;;;;;18.83;14.95;;;;;;;20.30;96.24;69021.09;5034582;28;20041;-80
2022/09/13 10:18:34;;;;;;;15.38;12.02;;;;;;;20.36;95.06;69033.34;5028330;28;20140;-80
2022/09/13 10:21:02;;;;;;;18.38;13.38;;;;;;;20.55;95.23;69051.25;5023441;28;20041;-80
2022/09/13 10:23:28;;;;;;;16.38;12.23;;;;;;;;;;5035108;28;20064;-80
2022/09/13 10:26:27;;;;;;;17.70;13.95;;;;;;;20.55;93.80;69051.84;5036445;28;20048;-77
2022/09/13 10:28:56;;;;;;;18.10;12.98;;;;;;;20.67;94.88;69067.69;5048894;28;20034;-81
2022/09/13 10:31:26;;;;;;;16.23;12.40;;;;;;;;;;5035413;28;20054;-80
2022/09/13 10:33:58;;;;;;;18.25;10.65;;;;;;;20.87;91.78;69087.84;5037895;28;20042;-79
2022/09/13 10:36:29;;;;;;;12.27;9.90;;;;;;;20.94;91.91;69095.28;5032845;28;20124;-78
2022/09/13 10:39:01;;;;;;;12.52;9.30;;;;;;;21.02;90.98;69103.88;5036681;28;20038;-80
2022/09/13 10:41:30;;;;;;;14.00;8.70;;;;;;;20.96;88.96;69097.56;5026347;28;20415;-78
2022/09/13 10:43:59;;;;;;;;;;;;;;;20.95;89.52;69099.72;5029024;28;20072;-80
2022/09/13 10:46:28;;;;;;;10.00;7.82;;;;;;;20.90;89.15;69093.41;5027002;28;19917;-78
2022/09/13 10:48:57;;;;;;;;;;;;;;;20.92;88.92;69095.72;5027592;28;20489;-80
2022/09/13 10:51:25;;;;;;;11.63;7.90;;;;;;;20.86;88.64;69088.84;5028064;28;19968;-80
2022/09/13 10:54:05;;;;;;;12.40;8.65;;;;;;;20.94;89.63;69095.28;5029979;28;20050;-80
2022/09/13 10:56:31;;;;;;;11.27;8.48;;;;;;;20.87;88.84;69085.16;5027058;28;20067;-78
2022/09/13 10:59:28;;;;;;;10.50;8.73;;;;;;;20.94;89.71;69098.56;5028564;28;20493;-79
2022/09/13 11:02:31;;;;;;;12.02;8.13;;;;;;;21.00;89.22;69104.28;5039685;28;20045;-79
2022/09/13 11:05:05;;;;;;;12.00;8.23;;;;;;;20.93;89.68;69088.72;5035539;28;20044;-79
2022/09/13 11:07:45;;;;;;;10.60;7.05;;;;;;;20.96;89.02;69095.44;5025259;28;20068;-79
2022/09/13 11:11:00;;;;;;;11.77;7.82;;;;;;;21.06;88.35;69109.03;5029022;28;20520;-79
2022/09/13 11:14:09;;;;;;;10.25;6.45;;;;;;;21.05;88.98;69107.31;4990933;28;20514;-80
2022/09/13 11:17:08;;;;;;;7.85;6.55;;;;;;;21.11;87.73;69116.88;5004735;28;20050;-79
2022/09/13 11:19:53;;;;;;;7.60;6.00;;;;;;;21.39;87.79;69142.94;5030094;28;20117;-79
2022/09/13 11:23:01;;;;;;;8.77;5.78;;;;;;;21.39;85.95;69145.66;5034659;28;20041;-78
2022/09/13 11:25:26;;;;;;;6.50;4.03;;;;;;;21.50;84.20;69160.94;5010841;28;20066;-78
2022/09/13 11:28:06;;;;;;;5.05;3.30;;;;;;;21.62;83.29;69171.97;5020893;28;20072;-80
2022/09/13 11:31:00;;;;;;;6.20;3.38;;;;;;;21.69;81.44;69179.41;5023482;28;20041;-79
2022/09/13 11:33:46;;;;;;;4.80;2.95;;;;;;;21.60;81.84;69166.97;5024367;28;20046;-81
2022/09/13 11:36:23;;;;;;;6.40;2.55;;;;;;;21.59;81.34;69168.53;5028733;28;20045;-81
2022/09/13 11:38:57;;;;;;;2.45;2.03;;;;;;;21.66;82.02;69178.09;5030878;28;20516;-79
2022/09/13 11:41:44;;;;;;;4.45;2.45;;;;;;;21.54;81.24;69164.94;5022851;28;20054;-81
2022/09/13 11:44:22;;;;;;;3.60;2.40;;;;;;;21.54;81.73;69164.94;5016672;28;20046;-80
2022/09/13 11:47:12;;;;;;;3.63;2.50;;;;;;;21.78;81.67;69191.84;5028427;28;20037;-79
2022/09/13 11:49:53;;;;;;;4.55;2.55;;;;;;;21.78;79.90;69184.28;5041143;28;20048;-79
2022/09/13 11:52:56;;;;;;;5.28;3.20;;;;;;;21.86;80.40;69193.44;5036073;28;20060;-79
2022/09/13 11:55:29;;;;;;;4.68;2.80;;;;;;;21.98;80.66;69212.03;5030966;28;20060;-79
2022/09/13 11:58:02;;;;;;;4.38;3.10;;;;;;;22.29;79.81;69246.97;5029179;28;20039;-79